createdAt,value
2023-02-16T00:00:30.341Z,29.15
2023-02-16T00:02:56.733Z,29.20
2023-02-16T00:05:26.242Z,27.40
2023-02-16T00:07:53.635Z,29.85
2023-02-16T00:10:20.071Z,30.85
2023-02-16T00:13:05.106Z,30.27
2023-02-16T00:15:31.992Z,30.87
2023-02-16T00:18:00.235Z,30.75
2023-02-16T00:20:26.655Z,29.55
2023-02-16T00:22:52.941Z,29.92
2023-02-16T00:25:19.268Z,30.77
2023-02-16T00:27:45.676Z,30.67
2023-02-16T00:30:20.199Z,30.05
2023-02-16T00:32:46.693Z,30.92
2023-02-16T00:35:16.881Z,30.73
2023-02-16T00:37:43.402Z,32.75
2023-02-16T00:40:10.708Z,30.15
2023-02-16T00:42:37.558Z,29.85
2023-02-16T00:45:04.315Z,31.48
2023-02-16T00:47:30.794Z,31.35
2023-02-16T00:49:57.298Z,31.30
2023-02-16T00:52:29.525Z,30.90
2023-02-16T00:54:56.587Z,29.52
2023-02-16T00:57:23.740Z,29.73
2023-02-16T00:59:54.448Z,31.77
2023-02-16T01:02:20.712Z,30.83
2023-02-16T01:04:47.014Z,30.73
2023-02-16T01:07:33.120Z,30.75
2023-02-16T01:10:17.990Z,31.33
2023-02-16T01:12:44.414Z,30.75
2023-02-16T01:15:13.884Z,30.00
2023-02-16T01:17:40.374Z,30.10
2023-02-16T01:20:16.731Z,32.45
2023-02-16T01:22:43.112Z,30.67
2023-02-16T01:25:09.441Z,30.80
2023-02-16T01:27:39.300Z,31.75
2023-02-16T01:30:06.374Z,30.70
2023-02-16T01:32:33.804Z,31.33
2023-02-16T01:35:00.134Z,31.30
2023-02-16T01:37:26.458Z,32.15
2023-02-16T01:39:52.740Z,31.58
2023-02-16T01:42:45.373Z,29.17
2023-02-16T01:45:13.940Z,30.70
2023-02-16T01:47:43.208Z,32.28
2023-02-16T01:50:12.513Z,29.30
2023-02-16T01:52:41.460Z,31.45
2023-02-16T01:55:13.574Z,32.10
2023-02-16T01:57:43.558Z,27.88
2023-02-16T02:00:27.357Z,31.13
2023-02-16T02:02:55.126Z,32.60
2023-02-16T02:05:35.874Z,29.45
2023-02-16T02:08:21.223Z,31.73
2023-02-16T02:10:59.665Z,29.95
2023-02-16T02:13:44.537Z,30.38
2023-02-16T02:16:11.452Z,29.75
2023-02-16T02:18:38.433Z,29.27
2023-02-16T02:21:42.227Z,31.63
2023-02-16T02:24:11.365Z,29.42
2023-02-16T02:26:56.597Z,30.15
2023-02-16T02:29:22.933Z,29.75
2023-02-16T02:31:52.641Z,30.00
2023-02-16T02:34:34.223Z,29.65
2023-02-16T02:37:20.779Z,31.42
2023-02-16T02:40:05.440Z,28.90
2023-02-16T02:42:35.888Z,31.33
2023-02-16T02:45:11.719Z,28.75
2023-02-16T02:47:39.162Z,29.67
2023-02-16T02:50:25.130Z,28.42
2023-02-16T02:58:21.377Z,27.00
2023-02-16T03:00:49.431Z,29.05
2023-02-16T03:03:22.076Z,30.50
2023-02-16T03:05:51.769Z,29.20
2023-02-16T03:08:21.085Z,30.33
2023-02-16T03:11:14.426Z,29.45
2023-02-16T03:13:43.773Z,30.73
2023-02-16T03:16:12.416Z,30.50
2023-02-16T03:18:58.666Z,28.98
2023-02-16T03:21:43.917Z,30.15
2023-02-16T03:24:30.702Z,28.40
2023-02-16T03:27:16.951Z,29.60
2023-02-16T03:29:44.895Z,28.10
2023-02-16T03:32:11.560Z,29.27
2023-02-16T03:34:37.951Z,29.17
2023-02-16T03:37:04.679Z,29.55
2023-02-16T03:39:31.319Z,27.52
2023-02-16T03:41:58.102Z,28.50
2023-02-16T03:44:25.055Z,29.75
2023-02-16T03:46:51.775Z,29.42
2023-02-16T03:49:18.993Z,28.33
2023-02-16T03:51:45.431Z,30.08
2023-02-16T03:54:12.500Z,28.25
2023-02-16T03:56:38.895Z,27.77
2023-02-16T03:59:05.301Z,29.55
2023-02-16T04:01:31.999Z,30.45
2023-02-16T04:03:58.427Z,29.73
2023-02-16T04:06:24.765Z,29.17
2023-02-16T04:08:51.016Z,30.55
2023-02-16T04:11:36.078Z,29.20
2023-02-16T04:14:03.091Z,29.93
2023-02-16T04:16:29.425Z,28.48
2023-02-16T04:18:55.805Z,29.33
2023-02-16T04:21:22.088Z,29.60
2023-02-16T04:23:48.941Z,31.30
2023-02-16T04:26:15.271Z,29.25
2023-02-16T04:28:41.565Z,30.33
2023-02-16T04:31:08.184Z,29.15
2023-02-16T04:33:34.640Z,31.50
2023-02-16T04:36:00.965Z,29.63
2023-02-16T04:38:27.311Z,30.08
2023-02-16T04:40:53.854Z,30.65
2023-02-16T04:43:20.157Z,30.48
2023-02-16T04:45:46.562Z,31.27
2023-02-16T04:48:12.912Z,29.75
2023-02-16T04:50:39.213Z,27.75
2023-02-16T04:53:05.554Z,30.60
2023-02-16T04:55:32.743Z,31.77
2023-02-16T04:57:59.143Z,28.88
2023-02-16T05:00:25.910Z,32.50
2023-02-16T05:02:52.247Z,31.98
2023-02-16T05:05:18.622Z,29.25
2023-02-16T05:07:44.920Z,31.25
2023-02-16T05:10:11.241Z,32.05
2023-02-16T05:12:56.157Z,30.60
2023-02-16T05:15:22.914Z,29.58
2023-02-16T05:17:49.260Z,30.20
2023-02-16T05:20:15.659Z,30.45
2023-02-16T05:22:43.525Z,31.42
2023-02-16T05:25:09.888Z,32.63
2023-02-16T05:27:36.278Z,31.45
2023-02-16T05:30:03.215Z,33.00
2023-02-16T05:32:29.590Z,32.08
2023-02-16T05:34:55.835Z,30.75
2023-02-16T05:37:22.243Z,30.98
2023-02-16T05:39:48.783Z,31.75
2023-02-16T05:42:15.079Z,32.17
2023-02-16T05:44:41.396Z,31.45
2023-02-16T05:47:07.751Z,33.50
2023-02-16T05:49:34.108Z,30.35
2023-02-16T05:52:00.419Z,32.13
2023-02-16T05:54:27.843Z,33.78
2023-02-16T05:56:54.198Z,33.53
2023-02-16T05:59:20.583Z,32.63
2023-02-16T06:01:49.543Z,31.98
2023-02-16T06:04:17.461Z,33.00
2023-02-16T06:06:44.130Z,31.90
2023-02-16T06:09:10.521Z,32.63
2023-02-16T06:11:36.919Z,32.53
2023-02-16T06:14:04.501Z,32.85
2023-02-16T06:16:32.160Z,33.95
2023-02-16T06:18:58.858Z,32.08
2023-02-16T06:21:26.678Z,33.38
2023-02-16T06:23:53.142Z,35.70
2023-02-16T06:26:19.612Z,34.40
2023-02-16T06:28:45.888Z,32.90
2023-02-16T06:31:12.515Z,33.80
2023-02-16T06:33:38.910Z,33.03
2023-02-16T06:36:05.820Z,34.05
2023-02-16T06:38:32.236Z,35.47
2023-02-16T06:40:58.526Z,34.05
2023-02-16T06:43:24.838Z,34.47
2023-02-16T06:45:51.250Z,34.88
2023-02-16T06:48:17.539Z,35.00
2023-02-16T06:50:43.909Z,33.63
2023-02-16T06:53:10.530Z,35.78
2023-02-16T06:55:36.883Z,34.20
2023-02-16T06:58:04.210Z,34.47
2023-02-16T07:00:30.826Z,34.72
2023-02-16T07:02:57.226Z,34.78
2023-02-16T07:05:23.564Z,33.47
2023-02-16T07:07:49.918Z,34.17
2023-02-16T07:10:16.194Z,36.22
2023-02-16T07:12:42.474Z,34.15
2023-02-16T07:15:10.392Z,34.22
2023-02-16T07:17:36.672Z,33.38
2023-02-16T07:20:05.327Z,36.22
2023-02-16T07:22:32.283Z,33.22
2023-02-16T07:25:00.535Z,34.40
2023-02-16T07:27:27.161Z,33.97
2023-02-16T07:29:53.538Z,34.38
2023-02-16T07:32:19.916Z,33.38
2023-02-16T07:34:46.264Z,33.13
2023-02-16T07:37:12.602Z,34.50
2023-02-16T07:39:38.980Z,33.03
2023-02-16T07:42:05.519Z,33.78
2023-02-16T07:44:32.298Z,34.45
2023-02-16T07:46:58.586Z,33.95
2023-02-16T07:49:24.919Z,33.47
2023-02-16T07:51:51.785Z,31.48
2023-02-16T07:54:18.125Z,32.30
2023-02-16T07:56:44.418Z,34.85
2023-02-16T07:59:10.795Z,34.47
2023-02-16T08:01:37.652Z,34.40
2023-02-16T08:04:04.179Z,34.60
2023-02-16T08:06:30.552Z,34.45
2023-02-16T08:08:57.097Z,36.00
2023-02-16T08:11:25.203Z,34.38
2023-02-16T08:13:51.959Z,35.33
2023-02-16T08:16:19.660Z,34.70
2023-02-16T08:18:46.333Z,34.65
2023-02-16T08:21:14.512Z,32.25
2023-02-16T08:23:47.482Z,33.38
2023-02-16T08:26:15.491Z,32.97
2023-02-16T08:28:46.094Z,33.90
2023-02-16T08:31:13.595Z,32.05
2023-02-16T08:33:40.111Z,32.47
2023-02-16T08:36:09.544Z,32.97
2023-02-16T08:38:36.513Z,34.05
2023-02-16T08:41:03.340Z,34.70
2023-02-16T08:43:29.626Z,35.10
2023-02-16T08:45:56.055Z,34.38
2023-02-16T08:48:23.345Z,32.25
2023-02-16T08:50:55.612Z,33.35
2023-02-16T08:53:23.245Z,34.03
2023-02-16T08:55:56.497Z,35.10
2023-02-16T08:58:23.306Z,35.85
2023-02-16T09:00:50.069Z,35.20
2023-02-16T09:03:18.957Z,35.30
2023-02-16T09:05:49.206Z,35.33
2023-02-16T09:08:15.884Z,34.42
2023-02-16T09:10:42.423Z,35.78
2023-02-16T09:13:14.853Z,35.83
2023-02-16T09:15:42.990Z,36.60
2023-02-16T09:18:09.734Z,35.15
2023-02-16T09:20:39.308Z,35.20
2023-02-16T09:23:06.227Z,35.47
2023-02-16T09:25:36.390Z,38.08
2023-02-16T09:28:03.345Z,36.13
2023-02-16T09:30:29.920Z,37.40
2023-02-16T09:32:56.313Z,40.03
2023-02-16T09:35:23.017Z,39.63
2023-02-16T09:37:49.921Z,36.35
2023-02-16T09:40:16.367Z,37.58
2023-02-16T09:43:03.419Z,38.55
2023-02-16T09:45:35.061Z,38.40
2023-02-16T09:48:02.305Z,40.88
2023-02-16T09:50:52.528Z,39.42
2023-02-16T09:53:28.836Z,36.78
2023-02-16T09:56:07.986Z,39.30
2023-02-16T09:58:42.013Z,38.70
2023-02-16T10:01:27.371Z,39.25
2023-02-16T10:04:18.768Z,39.38
2023-02-16T10:06:51.266Z,41.38
2023-02-16T10:09:19.546Z,41.95
2023-02-16T10:12:00.925Z,39.42
2023-02-16T10:14:49.166Z,39.55
2023-02-16T10:17:40.801Z,39.30
2023-02-16T10:20:26.180Z,39.92
2023-02-16T10:23:01.430Z,39.05
2023-02-16T10:25:48.880Z,40.55
2023-02-16T10:28:15.187Z,38.95
2023-02-16T10:30:49.029Z,37.88
2023-02-16T10:33:17.733Z,41.00
2023-02-16T10:35:48.727Z,40.60
2023-02-16T10:38:26.802Z,40.70
2023-02-16T10:41:03.789Z,42.10
2023-02-16T10:43:42.301Z,40.33
2023-02-16T10:46:10.620Z,40.80
2023-02-16T10:48:37.319Z,42.13
2023-02-16T10:51:07.518Z,38.95
2023-02-16T10:53:54.621Z,41.60
2023-02-16T10:56:20.992Z,41.72
2023-02-16T10:58:47.634Z,41.33
2023-02-16T11:01:22.011Z,43.35
2023-02-16T11:03:49.852Z,42.35
2023-02-16T11:06:22.008Z,43.58
2023-02-16T11:08:54.205Z,44.13
2023-02-16T11:11:23.045Z,41.72
2023-02-16T11:13:50.148Z,42.40
2023-02-16T11:16:22.012Z,42.80
2023-02-16T11:18:55.223Z,44.08
2023-02-16T11:21:22.066Z,43.20
2023-02-16T11:23:58.990Z,44.58
2023-02-16T11:26:26.450Z,43.10
2023-02-16T11:28:53.170Z,42.47
2023-02-16T11:31:33.432Z,42.28
2023-02-16T11:34:14.084Z,43.13
2023-02-16T11:36:41.645Z,41.75
2023-02-16T11:39:08.849Z,43.92
2023-02-16T11:41:37.312Z,41.70
2023-02-16T11:44:04.236Z,41.25
2023-02-16T11:46:38.565Z,41.08
2023-02-16T11:49:21.010Z,40.53
2023-02-16T11:51:47.362Z,41.75
2023-02-16T11:54:16.720Z,39.78
2023-02-16T11:56:43.369Z,41.15
2023-02-16T11:59:15.957Z,41.25
2023-02-16T12:02:01.330Z,42.13
2023-02-16T12:04:33.764Z,42.30
2023-02-16T12:07:15.487Z,39.15
2023-02-16T12:10:08.035Z,41.15
2023-02-16T12:12:45.860Z,38.33
2023-02-16T12:15:15.186Z,39.45
2023-02-16T12:17:45.531Z,39.05
2023-02-16T12:20:23.287Z,40.42
2023-02-16T12:22:51.063Z,40.70
2023-02-16T12:25:29.931Z,40.40
2023-02-16T12:28:16.911Z,38.95
2023-02-16T12:30:49.372Z,37.22
2023-02-16T12:33:21.029Z,35.65
2023-02-16T12:35:56.867Z,36.28
2023-02-16T12:38:24.513Z,35.85
2023-02-16T12:40:58.409Z,33.65
2023-02-16T12:43:28.037Z,35.40
2023-02-16T12:45:56.240Z,30.83
2023-02-16T12:48:42.612Z,32.35
2023-02-16T12:51:21.253Z,32.40
2023-02-16T12:53:59.357Z,31.00
2023-02-16T12:56:33.130Z,30.65
2023-02-16T12:59:16.762Z,29.75
2023-02-16T13:01:43.573Z,29.02
2023-02-16T13:04:16.122Z,27.30
2023-02-16T13:06:42.504Z,26.52
2023-02-16T13:09:16.135Z,27.58
2023-02-16T13:11:46.284Z,29.27
2023-02-16T13:14:20.746Z,28.15
2023-02-16T13:16:53.799Z,29.67
2023-02-16T13:19:20.242Z,28.35
2023-02-16T13:22:05.513Z,26.65
2023-02-16T13:24:50.980Z,28.88
2023-02-16T13:27:20.359Z,25.92
2023-02-16T13:30:05.925Z,27.92
2023-02-16T13:32:38.664Z,27.40
2023-02-16T13:35:16.105Z,26.15
2023-02-16T13:38:18.210Z,25.38
2023-02-16T13:41:10.257Z,24.40
2023-02-16T13:43:40.634Z,24.02
2023-02-16T13:46:12.184Z,24.30
2023-02-16T13:48:46.127Z,20.33
2023-02-16T13:51:14.684Z,21.73
2023-02-16T13:53:42.796Z,22.10
2023-02-16T13:56:14.980Z,22.65
2023-02-16T13:58:41.295Z,22.67
2023-02-16T14:01:26.370Z,19.08
2023-02-16T14:03:53.188Z,19.95
2023-02-16T14:06:28.530Z,20.88
2023-02-16T14:09:13.095Z,20.83
2023-02-16T14:12:08.542Z,19.92
2023-02-16T14:14:34.845Z,20.80
2023-02-16T14:17:10.705Z,20.20
2023-02-16T14:19:37.110Z,20.60
2023-02-16T14:22:09.654Z,20.55
2023-02-16T14:24:38.023Z,18.85
2023-02-16T14:27:06.204Z,19.23
2023-02-16T14:29:51.422Z,19.45
2023-02-16T14:32:26.771Z,19.52
2023-02-16T14:34:55.355Z,20.42
2023-02-16T14:37:27.953Z,19.33
2023-02-16T14:40:11.256Z,19.52
2023-02-16T14:42:42.699Z,20.73
2023-02-16T14:45:18.237Z,18.38
2023-02-16T14:47:45.223Z,19.65
2023-02-16T14:50:31.845Z,17.17
2023-02-16T14:52:58.152Z,18.17
2023-02-16T14:55:30.776Z,19.25
2023-02-16T14:58:00.697Z,18.40
2023-02-16T15:00:30.440Z,16.08
2023-02-16T15:03:15.469Z,14.32
2023-02-16T15:05:41.915Z,16.70
2023-02-16T15:08:09.406Z,15.23
2023-02-16T15:10:37.293Z,14.23
2023-02-16T15:13:04.016Z,14.18
2023-02-16T15:15:44.827Z,14.52
2023-02-16T15:18:31.915Z,14.23
2023-02-16T15:20:59.103Z,16.23
2023-02-16T15:23:26.843Z,14.95
2023-02-16T15:25:53.297Z,16.05
2023-02-16T15:28:26.178Z,17.02
2023-02-16T15:30:54.397Z,17.52
2023-02-16T15:33:23.723Z,17.00
2023-02-16T15:36:00.604Z,17.38
2023-02-16T15:38:28.178Z,18.60
2023-02-16T15:40:56.125Z,18.65
2023-02-16T15:43:32.035Z,18.08
2023-02-16T15:46:00.043Z,19.45
2023-02-16T15:48:29.340Z,18.23
2023-02-16T15:51:16.293Z,19.65
2023-02-16T15:53:53.365Z,18.85
2023-02-16T15:56:37.642Z,18.75
2023-02-16T15:59:06.431Z,20.13
2023-02-16T16:01:37.267Z,22.88
2023-02-16T16:04:16.891Z,21.08
2023-02-16T16:06:45.470Z,21.02
2023-02-16T16:09:22.953Z,22.05
2023-02-16T16:11:50.731Z,22.70
2023-02-16T16:14:17.883Z,22.88
2023-02-16T16:16:44.778Z,22.52
2023-02-16T16:19:15.739Z,22.83
2023-02-16T16:21:54.105Z,24.15
2023-02-16T16:24:39.099Z,23.73
2023-02-16T16:27:07.267Z,22.20
2023-02-16T16:29:45.171Z,23.48
2023-02-16T16:32:22.298Z,23.50
2023-02-16T16:34:48.944Z,20.85
2023-02-16T16:37:22.317Z,22.60
2023-02-16T16:39:58.890Z,22.90
2023-02-16T16:42:25.468Z,24.17
2023-02-16T16:44:56.818Z,22.95
2023-02-16T16:47:28.482Z,25.45
2023-02-16T16:49:57.200Z,22.02
2023-02-16T16:52:31.047Z,22.08
2023-02-16T16:54:57.378Z,22.60
2023-02-16T16:57:24.304Z,23.63
2023-02-16T16:59:50.912Z,25.02
2023-02-16T17:02:17.307Z,24.25
2023-02-16T17:04:43.576Z,24.08
2023-02-16T17:07:10.036Z,26.38
2023-02-16T17:09:36.350Z,25.92
2023-02-16T17:12:02.812Z,27.45
2023-02-16T17:14:29.128Z,28.90
2023-02-16T17:16:56.456Z,26.27
2023-02-16T17:19:23.467Z,25.27
2023-02-16T17:21:49.865Z,26.20
2023-02-16T17:24:16.383Z,25.88
2023-02-16T17:26:43.051Z,27.73
2023-02-16T17:29:09.671Z,28.30
2023-02-16T17:31:36.146Z,23.35
2023-02-16T17:34:02.910Z,26.10
2023-02-16T17:36:29.368Z,26.73
2023-02-16T17:38:55.824Z,26.50
2023-02-16T17:41:23.512Z,27.73
2023-02-16T17:43:50.001Z,28.75
2023-02-16T17:46:17.117Z,28.40
2023-02-16T17:48:43.468Z,27.35
2023-02-16T17:51:17.033Z,31.38
2023-02-16T17:53:43.503Z,28.92
2023-02-16T17:56:13.412Z,30.20
2023-02-16T17:58:40.052Z,30.25
2023-02-16T18:01:06.745Z,30.17
2023-02-16T18:03:33.145Z,29.85
2023-02-16T18:05:59.497Z,29.98
2023-02-16T18:08:26.109Z,30.98
2023-02-16T18:10:54.061Z,30.27
2023-02-16T18:13:20.379Z,32.00
2023-02-16T18:15:48.136Z,31.13
2023-02-16T18:18:17.978Z,32.08
2023-02-16T18:20:44.810Z,32.83
2023-02-16T18:23:11.235Z,30.85
2023-02-16T18:25:39.035Z,31.20
2023-02-16T18:28:05.558Z,30.80
2023-02-16T18:30:31.981Z,30.42
2023-02-16T18:32:58.516Z,30.58
2023-02-16T18:35:25.143Z,30.63
2023-02-16T18:37:51.488Z,29.02
2023-02-16T18:40:19.655Z,28.88
2023-02-16T18:42:46.435Z,31.23
2023-02-16T18:45:12.785Z,28.83
2023-02-16T18:47:39.089Z,30.25
2023-02-16T18:50:05.765Z,29.25
2023-02-16T18:52:32.155Z,28.75
2023-02-16T18:54:58.496Z,30.35
2023-02-16T18:57:24.913Z,28.02
2023-02-16T18:59:51.305Z,27.95
2023-02-16T19:02:17.614Z,28.00
2023-02-16T19:04:43.990Z,27.63
2023-02-16T19:07:10.471Z,26.73
2023-02-16T19:09:36.836Z,27.63
2023-02-16T19:12:03.328Z,25.38
2023-02-16T19:14:29.677Z,26.77
2023-02-16T19:16:56.028Z,27.63
2023-02-16T19:19:22.338Z,26.98
2023-02-16T19:21:48.754Z,25.63
2023-02-16T19:24:15.018Z,25.23
2023-02-16T19:26:41.521Z,25.27
2023-02-16T19:29:07.858Z,26.48
2023-02-16T19:31:35.493Z,24.45
2023-02-16T19:34:01.989Z,24.98
2023-02-16T19:36:30.564Z,24.70
2023-02-16T19:38:57.363Z,24.23
2023-02-16T19:41:25.754Z,23.63
2023-02-16T19:43:52.408Z,25.33
2023-02-16T19:46:18.861Z,25.00
2023-02-16T19:48:46.013Z,25.13
2023-02-16T19:51:12.702Z,24.23
2023-02-16T19:53:39.491Z,23.80
2023-02-16T19:56:07.571Z,22.52
2023-02-16T19:58:34.293Z,22.48
2023-02-16T20:01:05.685Z,23.42
2023-02-16T20:03:32.024Z,21.92
2023-02-16T20:05:58.356Z,22.30
2023-02-16T20:08:24.696Z,22.75
2023-02-16T20:10:51.123Z,20.92
2023-02-16T20:13:17.505Z,21.70
2023-02-16T20:15:43.908Z,20.30
2023-02-16T20:18:10.247Z,21.75
2023-02-16T20:20:36.599Z,20.75
2023-02-16T20:23:03.030Z,19.67
2023-02-16T20:25:29.399Z,20.42
2023-02-16T20:27:56.523Z,18.83
2023-02-16T20:30:25.339Z,19.38
2023-02-16T20:32:51.738Z,18.50
2023-02-16T20:35:18.832Z,17.88
2023-02-16T20:37:45.161Z,20.52
2023-02-16T20:40:11.837Z,16.23
2023-02-16T20:42:38.124Z,16.17
2023-02-16T20:45:04.564Z,14.38
2023-02-16T20:47:31.586Z,16.33
2023-02-16T20:49:58.174Z,14.68
2023-02-16T20:52:24.480Z,14.73
2023-02-16T20:54:50.764Z,14.13
2023-02-16T20:57:26.338Z,16.38
2023-02-16T20:59:53.535Z,14.20
2023-02-16T21:02:19.870Z,14.05
2023-02-16T21:04:46.160Z,14.15
2023-02-16T21:07:12.481Z,13.07
2023-02-16T21:09:38.777Z,14.65
2023-02-16T21:12:05.141Z,13.20
2023-02-16T21:14:31.600Z,14.00
2023-02-16T21:16:57.888Z,13.30
2023-02-16T21:19:24.173Z,12.75
2023-02-16T21:21:50.945Z,11.10
2023-02-16T21:24:17.189Z,13.23
2023-02-16T21:26:43.535Z,13.00
2023-02-16T21:29:09.822Z,13.15
2023-02-16T21:31:36.210Z,11.90
2023-02-16T21:34:02.957Z,11.52
2023-02-16T21:36:29.274Z,12.73
2023-02-16T21:38:55.666Z,11.95
2023-02-16T21:41:27.590Z,12.50
2023-02-16T21:43:53.841Z,12.98
2023-02-16T21:46:20.440Z,12.77
2023-02-16T21:48:47.601Z,13.93
2023-02-16T21:51:15.109Z,12.43
2023-02-16T21:53:41.442Z,12.65
2023-02-16T21:56:17.791Z,12.90
2023-02-16T21:58:44.210Z,12.43
2023-02-16T22:01:10.673Z,11.27
2023-02-16T22:03:37.018Z,12.52
2023-02-16T22:06:04.408Z,12.35
2023-02-16T22:08:32.196Z,12.27
2023-02-16T22:11:12.255Z,12.95
2023-02-16T22:13:39.202Z,10.63
2023-02-16T22:16:10.135Z,11.10
2023-02-16T22:18:37.128Z,11.38
2023-02-16T22:21:04.059Z,11.10
2023-02-16T22:23:30.448Z,11.25
2023-02-16T22:25:56.910Z,11.32
2023-02-16T22:28:23.337Z,10.98
2023-02-16T22:30:49.644Z,11.27
2023-02-16T22:33:15.976Z,10.45
2023-02-16T22:35:42.242Z,12.15
2023-02-16T22:38:08.522Z,11.00
2023-02-16T22:40:34.833Z,12.43
2023-02-16T22:43:01.126Z,12.82
2023-02-16T22:45:29.943Z,12.07
2023-02-16T22:47:56.460Z,11.32
2023-02-16T22:50:22.795Z,10.95
2023-02-16T22:52:49.187Z,11.70
2023-02-16T22:55:15.611Z,10.32
2023-02-16T22:57:42.048Z,11.55
2023-02-16T23:00:13.244Z,10.85
2023-02-16T23:02:39.561Z,12.02
2023-02-16T23:05:06.006Z,11.13
2023-02-16T23:07:33.088Z,12.27
2023-02-16T23:09:59.316Z,11.00
2023-02-16T23:12:25.644Z,10.65
2023-02-16T23:14:51.997Z,11.98
2023-02-16T23:17:18.387Z,11.50
2023-02-16T23:19:44.741Z,11.15
2023-02-16T23:22:11.035Z,12.05
2023-02-16T23:24:39.669Z,11.95
2023-02-16T23:27:05.918Z,12.20
2023-02-16T23:29:33.046Z,11.82
2023-02-16T23:31:59.327Z,12.10
2023-02-16T23:34:25.617Z,12.25
2023-02-16T23:36:51.964Z,13.38
2023-02-16T23:39:18.680Z,13.13
2023-02-16T23:41:45.436Z,13.80
2023-02-16T23:44:12.366Z,12.63
2023-02-16T23:46:38.766Z,13.82
2023-02-16T23:49:05.085Z,13.38
2023-02-16T23:51:31.598Z,14.48
2023-02-16T23:53:58.085Z,14.90
2023-02-16T23:56:25.886Z,14.75
2023-02-16T23:58:52.520Z,15.23
